WMT4952 LIBD-LATI
Flight info
| Callsign | WMT4952 |
|---|---|
| Flight time | 0h 32m |
| Altitude | 24000 |
| Route | VURKE DCT CRAYE/N0358F190 W36 LASTI L607 PETAK |
| Aircraft | A321/M-SDE1E2E3FGIJ1J4RWXY/LB1 |
Departure
| Time | 2026-04-22 17:31 |
|---|---|
| Airport | Bari Karol Wojtyła International Airport (LIBD) |
Arrival
| Time | 2026-04-22 18:03 |
|---|---|
| Airport | Tirana International Airport Mother Teresa (LATI) |
| Time | Latitude | Longitude | Altitude | Speed | Heading |
|---|---|---|---|---|---|
| 2026-04-22 17:06 | 41.13559 | 16.76455 | 143 ft | 0 kts | 159° |
| 2026-04-22 17:21 | 41.13569 | 16.76450 | 143 ft | 2 kts | 159° |
| 2026-04-22 17:22 | 41.13597 | 16.76436 | 142 ft | 1 kts | 159° |
| 2026-04-22 17:22 | 41.13606 | 16.76431 | 142 ft | 2 kts | 151° |
| 2026-04-22 17:22 | 41.13619 | 16.76397 | 143 ft | 2 kts | 82° |
| 2026-04-22 17:23 | 41.13617 | 16.76388 | 143 ft | 1 kts | 65° |
| 2026-04-22 17:23 | 41.13615 | 16.76382 | 143 ft | 0 kts | 69° |
| 2026-04-22 17:26 | 41.13617 | 16.76387 | 143 ft | 3 kts | 69° |
| 2026-04-22 17:26 | 41.13638 | 16.76465 | 141 ft | 12 kts | 70° |
| 2026-04-22 17:26 | 41.13691 | 16.76543 | 139 ft | 10 kts | 23° |
| 2026-04-22 17:27 | 41.13736 | 16.76632 | 136 ft | 13 kts | 71° |
| 2026-04-22 17:27 | 41.13766 | 16.76741 | 135 ft | 10 kts | 65° |
| 2026-04-22 17:27 | 41.13823 | 16.76768 | 132 ft | 8 kts | 333° |
| 2026-04-22 17:27 | 41.13875 | 16.76802 | 130 ft | 11 kts | 68° |
| 2026-04-22 17:28 | 41.13914 | 16.76940 | 128 ft | 23 kts | 69° |
| 2026-04-22 17:28 | 41.13963 | 16.77112 | 123 ft | 16 kts | 70° |
| 2026-04-22 17:28 | 41.14007 | 16.77272 | 118 ft | 19 kts | 70° |
| 2026-04-22 17:28 | 41.14050 | 16.77372 | 113 ft | 11 kts | 34° |
| 2026-04-22 17:29 | 41.14138 | 16.77415 | 109 ft | 15 kts | 12° |
| 2026-04-22 17:29 | 41.14207 | 16.77398 | 108 ft | 7 kts | 315° |
| 2026-04-22 17:29 | 41.14214 | 16.77338 | 109 ft | 6 kts | 252° |
| 2026-04-22 17:29 | 41.14212 | 16.77332 | 110 ft | 0 kts | 250° |
| 2026-04-22 17:30 | 41.14212 | 16.77333 | 109 ft | 0 kts | 250° |
| 2026-04-22 17:30 | 41.14169 | 16.77179 | 116 ft | 50 kts | 249° |
| 2026-04-22 17:30 | 41.13965 | 16.76457 | 132 ft | 115 kts | 249° |
| 2026-04-22 17:30 | 41.13619 | 16.75233 | 191 ft | 165 kts | 250° |
| 2026-04-22 17:31 | 41.13221 | 16.73812 | 804 ft | 165 kts | 253° |
| 2026-04-22 17:31 | 41.12825 | 16.72407 | 1514 ft | 165 kts | 255° |
| 2026-04-22 17:31 | 41.12433 | 16.71010 | 2120 ft | 161 kts | 257° |
| 2026-04-22 17:31 | 41.12048 | 16.69597 | 2440 ft | 169 kts | 257° |
| 2026-04-22 17:32 | 41.11684 | 16.68055 | 2699 ft | 177 kts | 272° |
| 2026-04-22 17:32 | 41.12129 | 16.66631 | 2939 ft | 177 kts | 323° |
| 2026-04-22 17:32 | 41.13256 | 16.65894 | 3335 ft | 184 kts | 340° |
| 2026-04-22 17:32 | 41.14480 | 16.65349 | 3717 ft | 193 kts | 341° |
| 2026-04-22 17:33 | 41.15346 | 16.64963 | 4002 ft | 198 kts | 341° |
| 2026-04-22 17:33 | 41.17124 | 16.64165 | 4678 ft | 207 kts | 341° |
| 2026-04-22 17:33 | 41.18472 | 16.63551 | 5412 ft | 204 kts | 341° |
| 2026-04-22 17:33 | 41.19803 | 16.62941 | 6082 ft | 205 kts | 342° |
| 2026-04-22 17:34 | 41.21174 | 16.62508 | 6701 ft | 207 kts | 360° |
| 2026-04-22 17:34 | 41.22592 | 16.62957 | 7332 ft | 215 kts | 25° |
| 2026-04-22 17:34 | 41.23741 | 16.64266 | 7862 ft | 231 kts | 50° |
| 2026-04-22 17:34 | 41.24353 | 16.66347 | 8189 ft | 259 kts | 77° |
| 2026-04-22 17:35 | 41.24559 | 16.68809 | 8560 ft | 277 kts | 79° |
| 2026-04-22 17:35 | 41.24768 | 16.71423 | 9029 ft | 290 kts | 79° |
| 2026-04-22 17:35 | 41.24990 | 16.74116 | 9700 ft | 294 kts | 79° |
| 2026-04-22 17:35 | 41.25220 | 16.76814 | 10353 ft | 299 kts | 79° |
| 2026-04-22 17:36 | 41.25363 | 16.79664 | 10723 ft | 317 kts | 88° |
| 2026-04-22 17:36 | 41.25118 | 16.82648 | 11102 ft | 334 kts | 99° |
| 2026-04-22 17:36 | 41.24565 | 16.85640 | 11667 ft | 341 kts | 103° |
| 2026-04-22 17:36 | 41.23940 | 16.88696 | 12252 ft | 345 kts | 102° |
| 2026-04-22 17:37 | 41.23741 | 16.91872 | 12826 ft | 344 kts | 78° |
| 2026-04-22 17:37 | 41.24353 | 16.94891 | 13406 ft | 343 kts | 66° |
| 2026-04-22 17:37 | 41.25189 | 16.97902 | 13960 ft | 348 kts | 65° |
| 2026-04-22 17:37 | 41.26028 | 17.00978 | 14491 ft | 354 kts | 66° |
| 2026-04-22 17:38 | 41.26817 | 17.04083 | 15040 ft | 359 kts | 66° |
| 2026-04-22 17:38 | 41.27576 | 17.07255 | 15557 ft | 364 kts | 67° |
| 2026-04-22 17:38 | 41.28320 | 17.10492 | 16078 ft | 368 kts | 67° |
| 2026-04-22 17:38 | 41.29066 | 17.13816 | 16615 ft | 372 kts | 67° |
| 2026-04-22 17:39 | 41.29796 | 17.17107 | 17144 ft | 375 kts | 67° |
| 2026-04-22 17:39 | 41.30533 | 17.20461 | 17641 ft | 379 kts | 66° |
| 2026-04-22 17:39 | 41.32016 | 17.27249 | 18640 ft | 387 kts | 66° |
| 2026-04-22 17:40 | 41.32774 | 17.30724 | 19092 ft | 392 kts | 67° |
| 2026-04-22 17:40 | 41.33537 | 17.34233 | 19535 ft | 397 kts | 66° |
| 2026-04-22 17:40 | 41.34295 | 17.37744 | 19992 ft | 400 kts | 66° |
| 2026-04-22 17:40 | 41.35068 | 17.41321 | 20447 ft | 404 kts | 66° |
| 2026-04-22 17:41 | 41.35847 | 17.44927 | 20929 ft | 407 kts | 66° |
| 2026-04-22 17:41 | 41.36643 | 17.48619 | 21350 ft | 412 kts | 66° |
| 2026-04-22 17:41 | 41.37432 | 17.52281 | 21760 ft | 416 kts | 66° |
| 2026-04-22 17:41 | 41.38234 | 17.56018 | 22196 ft | 420 kts | 66° |
| 2026-04-22 17:42 | 41.39034 | 17.59756 | 22589 ft | 424 kts | 65° |
| 2026-04-22 17:42 | 41.39851 | 17.63569 | 23003 ft | 428 kts | 66° |
| 2026-04-22 17:42 | 41.40402 | 17.66144 | 23275 ft | 431 kts | 66° |
| 2026-04-22 17:42 | 41.41498 | 17.71288 | 23823 ft | 434 kts | 66° |
| 2026-04-22 17:43 | 41.42324 | 17.75172 | 24015 ft | 436 kts | 66° |
| 2026-04-22 17:43 | 41.43155 | 17.79083 | 24025 ft | 436 kts | 66° |
| 2026-04-22 17:43 | 41.43967 | 17.82927 | 24026 ft | 436 kts | 66° |
| 2026-04-22 17:43 | 41.44803 | 17.86865 | 24032 ft | 436 kts | 66° |
| 2026-04-22 17:44 | 41.45623 | 17.90757 | 24029 ft | 435 kts | 66° |
| 2026-04-22 17:44 | 41.46443 | 17.94653 | 24026 ft | 436 kts | 66° |
| 2026-04-22 17:44 | 41.47258 | 17.98540 | 24031 ft | 436 kts | 66° |
| 2026-04-22 17:44 | 41.48070 | 18.02406 | 24031 ft | 435 kts | 66° |
| 2026-04-22 17:45 | 41.48884 | 18.06285 | 24023 ft | 435 kts | 66° |
| 2026-04-22 17:45 | 41.49738 | 18.10160 | 24018 ft | 430 kts | 61° |
| 2026-04-22 17:45 | 41.51056 | 18.13621 | 24011 ft | 411 kts | 44° |
| 2026-04-22 17:45 | 41.52850 | 18.16402 | 24023 ft | 392 kts | 32° |
| 2026-04-22 17:46 | 41.54837 | 18.18860 | 24017 ft | 390 kts | 30° |
| 2026-04-22 17:46 | 41.56860 | 18.21279 | 24025 ft | 392 kts | 30° |
| 2026-04-22 17:46 | 41.58878 | 18.23721 | 24023 ft | 391 kts | 30° |
| 2026-04-22 17:46 | 41.60890 | 18.26196 | 24020 ft | 390 kts | 31° |
| 2026-04-22 17:47 | 41.62878 | 18.28665 | 24015 ft | 392 kts | 31° |
| 2026-04-22 17:47 | 41.64858 | 18.31143 | 24017 ft | 392 kts | 31° |
| 2026-04-22 17:47 | 41.66835 | 18.33631 | 24013 ft | 392 kts | 31° |
| 2026-04-22 17:47 | 41.68830 | 18.36140 | 24017 ft | 393 kts | 31° |
| 2026-04-22 17:48 | 41.70138 | 18.37789 | 24018 ft | 392 kts | 31° |
| 2026-04-22 17:48 | 41.71396 | 18.39377 | 24011 ft | 392 kts | 31° |
| 2026-04-22 17:48 | 41.73377 | 18.41876 | 24016 ft | 391 kts | 32° |
| 2026-04-22 17:48 | 41.75326 | 18.44444 | 24001 ft | 400 kts | 38° |
| 2026-04-22 17:49 | 41.76801 | 18.47754 | 23664 ft | 427 kts | 62° |
| 2026-04-22 17:49 | 41.77340 | 18.51716 | 22970 ft | 447 kts | 84° |
| 2026-04-22 17:49 | 41.77206 | 18.55855 | 22461 ft | 448 kts | 91° |
| 2026-04-22 17:49 | 41.76977 | 18.59996 | 22063 ft | 443 kts | 90° |
| 2026-04-22 17:50 | 41.76826 | 18.64069 | 21652 ft | 438 kts | 88° |
| 2026-04-22 17:50 | 41.76770 | 18.68109 | 21262 ft | 433 kts | 87° |
| 2026-04-22 17:50 | 41.76774 | 18.72117 | 20901 ft | 427 kts | 86° |
| 2026-04-22 17:50 | 41.76814 | 18.76070 | 20493 ft | 423 kts | 86° |
| 2026-04-22 17:51 | 41.76868 | 18.79946 | 20079 ft | 418 kts | 86° |
| 2026-04-22 17:51 | 41.76928 | 18.83808 | 19668 ft | 415 kts | 86° |
| 2026-04-22 17:51 | 41.76986 | 18.87648 | 19286 ft | 411 kts | 87° |
| 2026-04-22 17:51 | 41.77041 | 18.91435 | 18940 ft | 406 kts | 87° |
| 2026-04-22 17:52 | 41.77095 | 18.95171 | 18557 ft | 401 kts | 87° |
| 2026-04-22 17:52 | 41.77145 | 18.98897 | 18170 ft | 397 kts | 87° |
| 2026-04-22 17:52 | 41.77193 | 19.02546 | 17780 ft | 393 kts | 87° |
| 2026-04-22 17:52 | 41.77240 | 19.06201 | 17405 ft | 389 kts | 87° |
| 2026-04-22 17:53 | 41.77285 | 19.09760 | 17033 ft | 384 kts | 86° |
| 2026-04-22 17:53 | 41.77328 | 19.13350 | 16626 ft | 381 kts | 86° |
| 2026-04-22 17:53 | 41.77372 | 19.16830 | 16230 ft | 377 kts | 86° |
| 2026-04-22 17:53 | 41.77413 | 19.20322 | 15895 ft | 372 kts | 86° |
| 2026-04-22 17:54 | 41.77422 | 19.23758 | 15554 ft | 367 kts | 91° |
| 2026-04-22 17:54 | 41.76892 | 19.27070 | 15046 ft | 363 kts | 108° |
| 2026-04-22 17:54 | 41.75963 | 19.30152 | 14566 ft | 354 kts | 112° |
| 2026-04-22 17:54 | 41.75012 | 19.33087 | 14142 ft | 343 kts | 111° |
| 2026-04-22 17:55 | 41.74396 | 19.35053 | 13837 ft | 336 kts | 110° |
| 2026-04-22 17:55 | 41.73270 | 19.38825 | 13252 ft | 323 kts | 109° |
| 2026-04-22 17:55 | 41.72484 | 19.41575 | 12791 ft | 314 kts | 108° |
| 2026-04-22 17:55 | 41.71718 | 19.44314 | 11940 ft | 321 kts | 108° |
| 2026-04-22 17:56 | 41.70940 | 19.47122 | 11004 ft | 325 kts | 108° |
| 2026-04-22 17:56 | 41.70159 | 19.49944 | 10297 ft | 320 kts | 107° |
| 2026-04-22 17:56 | 41.69409 | 19.52647 | 9805 ft | 308 kts | 107° |
| 2026-04-22 17:56 | 41.68678 | 19.55283 | 9346 ft | 296 kts | 107° |
| 2026-04-22 17:57 | 41.67977 | 19.57814 | 8789 ft | 289 kts | 107° |
| 2026-04-22 17:57 | 41.67285 | 19.60313 | 8286 ft | 283 kts | 107° |
| 2026-04-22 17:57 | 41.66616 | 19.62715 | 7869 ft | 272 kts | 107° |
| 2026-04-22 17:57 | 41.65977 | 19.65013 | 7357 ft | 259 kts | 107° |
| 2026-04-22 17:58 | 41.65281 | 19.67149 | 6982 ft | 245 kts | 124° |
| 2026-04-22 17:58 | 41.64038 | 19.68595 | 6683 ft | 233 kts | 152° |
| 2026-04-22 17:58 | 41.62519 | 19.69272 | 6174 ft | 231 kts | 168° |
| 2026-04-22 17:58 | 41.60938 | 19.69548 | 5630 ft | 230 kts | 174° |
| 2026-04-22 17:59 | 41.59332 | 19.69720 | 5000 ft | 233 kts | 174° |
| 2026-04-22 17:59 | 41.57727 | 19.69893 | 4367 ft | 234 kts | 174° |
| 2026-04-22 17:59 | 41.56122 | 19.70093 | 3798 ft | 229 kts | 174° |
| 2026-04-22 17:59 | 41.54568 | 19.70301 | 3179 ft | 226 kts | 173° |
| 2026-04-22 18:00 | 41.53525 | 19.70443 | 2758 ft | 224 kts | 173° |
| 2026-04-22 18:00 | 41.51472 | 19.70722 | 1937 ft | 220 kts | 174° |
| 2026-04-22 18:00 | 41.49985 | 19.70921 | 1568 ft | 207 kts | 174° |
| 2026-04-22 18:00 | 41.48626 | 19.71103 | 1333 ft | 190 kts | 174° |
| 2026-04-22 18:01 | 41.47351 | 19.71275 | 1062 ft | 178 kts | 175° |
| 2026-04-22 18:01 | 41.46152 | 19.71435 | 814 ft | 165 kts | 175° |
| 2026-04-22 18:01 | 41.45059 | 19.71579 | 581 ft | 154 kts | 175° |
| 2026-04-22 18:01 | 41.44029 | 19.71709 | 388 ft | 147 kts | 175° |
| 2026-04-22 18:02 | 41.43024 | 19.71851 | 206 ft | 141 kts | 174° |
| 2026-04-22 18:02 | 41.42078 | 19.71975 | 117 ft | 126 kts | 175° |
| 2026-04-22 18:02 | 41.41372 | 19.72066 | 123 ft | 77 kts | 175° |
| 2026-04-22 18:02 | 41.40964 | 19.72121 | 126 ft | 50 kts | 174° |
| 2026-04-22 18:03 | 41.40725 | 19.72153 | 127 ft | 19 kts | 176° |
| 2026-04-22 18:03 | 41.40680 | 19.72107 | 127 ft | 8 kts | 263° |
| 2026-04-22 18:03 | 41.40668 | 19.72024 | 127 ft | 9 kts | 257° |
| 2026-04-22 18:03 | 41.40650 | 19.71928 | 126 ft | 12 kts | 257° |
| 2026-04-22 18:04 | 41.40636 | 19.71812 | 124 ft | 11 kts | 285° |
| 2026-04-22 18:04 | 41.40710 | 19.71767 | 124 ft | 13 kts | 354° |
| 2026-04-22 18:04 | 41.40805 | 19.71751 | 124 ft | 13 kts | 351° |
| 2026-04-22 18:04 | 41.40904 | 19.71728 | 124 ft | 16 kts | 351° |
| 2026-04-22 18:05 | 41.41030 | 19.71704 | 124 ft | 18 kts | 354° |
| 2026-04-22 18:05 | 41.41162 | 19.71687 | 124 ft | 18 kts | 354° |
| 2026-04-22 18:05 | 41.41296 | 19.71669 | 122 ft | 20 kts | 354° |
| 2026-04-22 18:05 | 41.41436 | 19.71651 | 121 ft | 20 kts | 354° |
| 2026-04-22 18:06 | 41.41577 | 19.71632 | 119 ft | 20 kts | 355° |
| 2026-04-22 18:06 | 41.41723 | 19.71613 | 117 ft | 21 kts | 354° |
| 2026-04-22 18:06 | 41.41870 | 19.71594 | 117 ft | 21 kts | 355° |
| 2026-04-22 18:06 | 41.42012 | 19.71575 | 114 ft | 15 kts | 354° |
| 2026-04-22 18:07 | 41.42054 | 19.71569 | 114 ft | 4 kts | 346° |
| 2026-04-22 18:07 | 41.42065 | 19.71508 | 114 ft | 5 kts | 265° |
| 2026-04-22 18:07 | 41.42064 | 19.71497 | 114 ft | 0 kts | 266° |
| 2026-04-22 18:07 | 41.42064 | 19.71496 | 114 ft | 0 kts | 266° |